Latest Coastal Weather Observations for Stenhouse Bay

IDS60701

Issued at 4:41 pm CDT Sunday 29 March 2015 (issued every 10 minutes, with the page automatically refreshed every 10 minutes)

About coastal observations | Map of coastal stations | Coastal observations for SA | Marine services | Other Formats
Station Details ID: 022049 Name: STENHOUSE BAY Lat: -35.28 Lon: 136.94 Height: 42.0 m
Data from the previous 72 hours. | See also: Recent months at Stenhouse Bay
Date/Time
CDT
Temp

°C
Wind Pressure Rain
since 9am
mm
Weather Cloud Vis
km
Sea
Height
m
Swell
Dir
 
Speed
knots
Gust
knots
hPa Trend Height
m
Period
s
Dir
29/04:30pm 20.9 SW 9 11 1021.7 - 0.0 - - - - - - -
29/04:00pm 20.4 SW 9 12 1021.8 - 0.0 - - - - - - -
29/03:30pm 20.1 SW 10 11 1021.8 - 0.0 - - - - - - -
29/03:00pm 20.7 SW 10 12 1022.0 - 0.0 - - - - - - -
29/02:30pm 20.9 SW 9 13 1022.1 - 0.0 - - - - - - -
29/02:00pm 20.2 SW 8 11 1022.3 - 0.0 - - - - - - -
29/01:30pm 21.4 SW 7 10 1022.5 - 0.0 - - - - - - -
29/01:00pm 20.4 SSW 5 7 1022.7 - 0.0 - - - - - - -
29/12:30pm 19.9 SSW 6 7 1022.8 - 0.0 - - - - - - -
29/12:00pm 20.0 SSW 5 6 1022.9 - 0.0 - - - - - - -
29/11:30am 19.5 SW 6 8 1023.1 - 0.0 - - - - - - -
29/11:00am 19.7 SW 5 7 1023.0 - 0.0 - - - - - - -
29/10:30am 19.0 S 3 5 1023.0 - 0.0 - - - - - - -
29/10:00am 19.0 S 2 4 1022.9 - 0.0 - - - - - - -
29/09:30am 18.8 ENE 2 3 1022.7 - 0.0 - - - - - - -
29/09:00am 17.6 CALM 0 0 1022.5 - 0.0 - - - - - - -
29/08:30am 16.3 CALM 0 0 1022.1 - 0.0 - - - - - - -
29/08:00am 15.4 CALM 0 0 1022.0 - 0.0 - - - - - - -
29/07:30am 15.2 CALM 0 0 1021.7 - 0.0 - - - - - - -
29/07:00am 16.6 SSW 2 3 1021.3 - 0.0 - - - - - - -
29/06:30am 16.4 WSW 4 4 1021.1 - 0.0 - - - - - - -
29/06:00am 15.9 W 5 6 1020.9 - 0.0 - - - - - - -
29/05:30am 15.0 NW 2 2 1020.6 - 0.0 - - - - - - -
29/05:00am 15.0 NNW 1 1 1020.3 - 0.0 - - - - - - -
29/04:30am 14.7 NNW 1 2 1020.4 - 0.0 - - - - - - -
29/04:00am 14.4 NNW 1 2 1020.2 - 0.0 - - - - - - -
29/03:30am 13.9 NNW 3 3 1020.3 - 0.0 - - - - - - -
29/03:00am 13.9 NNW 3 4 1020.5 - 0.0 - - - - - - -
29/02:30am 14.1 NNW 3 3 1020.7 - 0.0 - - - - - - -
29/02:00am 14.5 N 3 5 1020.8 - 0.0 - - - - - - -
29/01:30am 14.6 N 3 3 1021.0 - 0.0 - - - - - - -
29/01:00am 14.7 N 3 4 1021.1 - 0.0 - - - - - - -
29/12:30am 14.1 NNW 4 5 1021.5 - 0.0 - - - - - - -
29/12:00am 14.5 N 3 4 1021.5 - 0.0 - - - - - - -
 
Date/Time
CDT
Temp

°C
Wind Pressure Rain
since 9am
mm
Weather Cloud Vis
km
Sea
Height
m
Swell
Dir
 
Speed
knots
Gust
knots
hPa Trend Height
m
Period
s
Dir
28/11:30pm 14.3 NNW 2 3 1021.7 - 0.0 - - - - - - -
28/11:00pm 14.4 N 2 3 1021.6 - 0.0 - - - - - - -
28/10:30pm 14.6 N 2 3 1021.7 - 0.0 - - - - - - -
28/10:00pm 15.1 NNE 3 4 1021.8 - 0.0 - - - - - - -
28/09:30pm 15.8 E 3 3 1021.8 - 0.0 - - - - - - -
28/09:00pm 15.9 E 3 4 1021.7 - 0.0 - - - - - - -
28/08:30pm 15.9 E 3 4 1021.5 - 0.0 - - - - - - -
28/08:00pm 16.2 ESE 3 4 1021.2 - 0.0 - - - - - - -
28/07:30pm 16.6 ESE 4 5 1021.0 - 0.0 - - - - - - -
28/07:00pm 17.1 SE 5 7 1020.7 - 0.0 - - - - - - -
28/06:30pm 18.3 SSE 4 5 1020.9 - 0.0 - - - - - - -
28/06:00pm 18.6 SE 5 6 1020.8 - 0.0 - - - - - - -
28/05:30pm 19.0 SSE 4 6 1020.8 - 0.0 - - - - - - -
28/05:00pm 18.7 SSE 5 7 1020.8 - 0.0 - - - - - - -
28/04:30pm 19.9 S 6 8 1020.9 - 0.0 - - - - - - -
28/04:00pm 19.0 S 6 8 1021.2 - 0.0 - - - - - - -
28/03:30pm 19.0 SE 4 5 1021.6 - 0.0 - - - - - - -
28/03:00pm 19.5 SE 6 8 1021.8 - 0.0 - - - - - - -
28/02:30pm 20.3 S 3 6 1022.3 - 0.0 - - - - - - -
28/02:00pm 22.2 NW 7 12 1022.6 - 0.0 - - - - - - -
28/01:30pm 21.8 N 6 12 1023.1 - 0.0 - - - - - - -
28/01:00pm 19.9 NNW 5 9 1023.3 - 0.0 - - - - - - -
28/12:30pm 19.7 N 5 8 1023.7 - 0.0 - - - - - - -
28/12:00pm 19.9 N 9 13 1024.1 - 0.0 - - - - - - -
28/11:30am 18.1 N 5 8 1024.3 - 0.0 - - - - - - -
28/11:00am 18.2 NE 7 9 1024.6 - 0.0 - - - - - - -
28/10:30am 17.4 NNE 8 11 1024.7 - 0.0 - - - - - - -
28/10:00am 15.9 NNE 8 11 1025.0 - 0.0 - - - - - - -
28/09:30am 14.8 NNE 7 9 1025.0 - 0.0 - - - - - - -
28/09:00am 12.7 N 4 5 1025.1 - 2.6 - - - - - - -
28/08:30am 11.0 N 4 6 1024.9 - 2.6 - - - - - - -
28/08:00am 11.0 N 5 7 1024.6 - 2.6 - - - - - - -
28/07:30am 11.4 NNE 4 6 1024.5 - 2.6 - - - - - - -
28/07:00am 11.6 NNE 4 5 1024.3 - 2.6 - - - - - - -
28/06:30am 12.4 N 2 3 1024.2 - 2.6 - - - - - - -
28/06:00am 13.8 ENE 5 6 1024.3 - 2.6 - - - - - - -
28/05:30am 13.1 E 3 5 1024.4 - 2.6 - - - - - - -
28/05:00am 13.2 ESE 4 5 1024.7 - 2.6 - - - - - - -
28/04:30am 13.2 SE 5 6 1025.0 - 2.6 - - - - - - -
28/04:00am 13.1 CALM 0 1 1025.3 - 2.6 - - - - - - -
28/03:30am 12.8 WNW 3 4 1025.4 - 2.6 - - - - - - -
28/03:00am 13.3 CALM 0 0 1025.5 - 2.6 - - - - - - -
28/02:30am 13.4 CALM 0 1 1025.6 - 2.6 - - - - - - -
28/02:00am 13.3 E 3 5 1026.1 - 2.6 - - - - - - -
28/01:30am 13.5 ENE 1 3 1026.3 - 2.6 - - - - - - -
28/01:00am 13.4 NW 3 4 1026.7 - 2.6 - - - - - - -
28/12:30am 13.6 NW 3 3 1026.8 - 2.6 - - - - - - -
28/12:00am 13.9 SE 6 8 1026.8 - 2.6 - - - - - - -
 
Date/Time
CDT
Temp

°C
Wind Pressure Rain
since 9am
mm
Weather Cloud Vis
km
Sea
Height
m
Swell
Dir
 
Speed
knots
Gust
knots
hPa Trend Height
m
Period
s
Dir
27/11:30pm 13.7 SE 6 9 1026.8 - 2.6 - - - - - - -
27/11:00pm 13.5 SE 5 8 1027.0 - 2.6 - - - - - - -
27/10:30pm 13.4 SE 9 12 1027.3 - 2.4 - - - - - - -
27/10:00pm 13.9 SE 6 9 1027.5 - 2.0 - - - - - - -
27/09:30pm 13.8 SSE 4 6 1027.4 - 1.6 - - - - - - -
27/09:00pm 13.9 SSE 6 9 1027.4 - 1.6 Rain - - - - - -
27/08:30pm 14.2 SE 9 13 1027.1 - 0.6 - - - - - - -
27/08:00pm 15.2 S 11 13 1026.8 - 0.2 - - - - - - -
27/07:30pm 15.5 S 11 13 1026.5 - 0.2 - - - - - - -
27/07:00pm 15.7 S 10 13 1026.6 - 0.2 - - - - - - -
27/06:30pm 16.4 SSW 9 13 1026.5 - 0.2 - - - - - - -
27/06:00pm 17.4 SSW 7 11 1026.6 - 0.2 - - - - - - -
27/05:30pm 17.2 SSW 9 13 1026.5 - 0.2 - - - - - - -
27/05:00pm 17.9 SSW 8 11 1026.7 - 0.2 - - - - - - -
27/04:30pm 18.4 SW 7 11 1026.7 - 0.2 - - - - - - -
27/04:00pm 18.2 SW 8 11 1026.9 - 0.2 - - - - - - -
27/03:30pm 18.2 SW 7 11 1027.1 - 0.2 - - - - - - -
27/03:00pm 18.7 SSW 7 9 1027.3 - 0.2 - - - - - - -
27/02:30pm 18.3 SSW 7 9 1027.6 - 0.2 - - - - - - -
27/02:00pm 17.8 SSW 6 9 1028.1 - 0.2 - - - - - - -
27/01:30pm 17.8 SSW 5 7 1028.5 - 0.2 - - - - - - -
27/01:00pm 17.0 SSW 4 6 1028.8 - 0.0 - - - - - - -
27/12:30pm 16.8 SW 5 8 1029.3 - 0.0 - - - - - - -
27/12:00pm 16.9 S 6 8 1029.6 - 0.0 - - - - - - -
27/11:30am 17.0 SSE 6 8 1029.9 - 0.0 - - - - - - -
27/11:00am 16.6 SSE 6 8 1029.9 - 0.0 - - - - - - -
27/10:30am 16.7 SSE 7 10 1029.9 - 0.0 - - - - - - -
27/10:00am 16.6 SSW 6 9 1029.9 - 0.0 - - - - - - -
27/09:30am 15.1 SSW 5 7 1029.8 - 0.0 - - - - - - -
27/09:00am 14.0 SSW 5 8 1029.6 - 0.0 - - - - - - -
27/08:30am 13.2 SSW 5 7 1029.5 - 0.0 - - - - - - -
27/08:00am 12.8 SW 5 8 1029.2 - 0.0 - - - - - - -
27/07:30am 12.9 SW 11 16 1029.0 - 0.0 - - - - - - -
27/07:00am 14.1 S 9 13 1028.6 - 0.0 - - - - - - -
27/06:30am 14.2 SSW 11 15 1028.3 - 0.0 - - - - - - -
27/06:00am 14.3 SSW 9 13 1028.1 - 0.0 - - - - - - -
27/05:30am 14.5 S 12 16 1027.9 - 0.0 - - - - - - -
27/05:00am 14.5 SSW 9 14 1027.9 - 0.0 - - - - - - -
27/04:30am 14.3 SW 7 9 1028.0 - 0.0 - - - - - - -
27/04:00am 14.6 SSW 9 13 1028.0 - 0.0 - - - - - - -
27/03:30am 14.4 SSW 11 15 1028.0 - 0.0 - - - - - - -
27/03:00am 14.6 SSW 13 18 1028.2 - 0.0 - - - - - - -
27/02:30am 14.6 SSW 8 12 1028.2 - 0.0 - - - - - - -
27/02:00am 14.8 SSW 11 14 1028.3 - 0.0 - - - - - - -
27/01:30am 14.7 SSW 11 14 1028.3 - 0.0 - - - - - - -
27/01:00am 14.9 SSW 11 15 1028.5 - 0.0 - - - - - - -
27/12:30am 14.8 SSW 9 14 1028.6 - 0.0 - - - - - - -
27/12:00am 14.7 SSW 10 15 1028.7 - 0.0 - - - - - - -
 
Date/Time
CDT
Temp

°C
Wind Pressure Rain
since 9am
mm
Weather Cloud Vis
km
Sea
Height
m
Swell
Dir
 
Speed
knots
Gust
knots
hPa Trend Height
m
Period
s
Dir
26/11:30pm 14.8 SSW 12 17 1028.7 - 0.0 - - - - - - -
26/11:00pm 14.8 SSW 8 13 1028.8 - 0.0 - - - - - - -
26/10:30pm 14.9 SSW 11 15 1028.9 - 0.0 - - - - - - -
26/10:00pm 14.7 SSW 11 17 1028.9 - 0.0 - - - - - - -
26/09:30pm 14.5 S 12 15 1028.8 - 0.0 - - - - - - -
26/09:00pm 14.6 SSW 12 16 1028.8 - 0.0 - - - - - - -
26/08:30pm 14.5 SSW 14 21 1028.7 - 0.0 - - - - - - -
26/08:00pm 14.8 SSW 11 16 1028.5 - 0.0 - - - - - - -
26/07:30pm 14.9 SSW 11 16 1028.3 - 0.0 - - - - - - -
26/07:00pm 15.3 SSW 13 19 1028.1 - 0.0 - - - - - - -
26/06:30pm 15.0 SSW 15 20 1027.8 - 0.0 - - - - - - -
26/06:00pm 16.5 SW 13 20 1027.5 - 0.0 - - - - - - -
26/05:30pm 16.4 SW 14 18 1027.3 - 0.0 - - - - - - -
26/05:00pm 15.4 SW 13 18 1027.3 - 0.0 - - - - - - -

Other Formats:

Comma delimited format used in spreadsheet applications
http://www.bom.gov.au/fwo/IDS60701/IDS60701.95806.axf

JavaScript Object Notation format (JSON) in row-major order
http://www.bom.gov.au/fwo/IDS60701/IDS60701.95806.json